createdAt,value
2022-12-25T00:01:53.225Z,100651.56
2022-12-25T00:04:59.800Z,100645.59
2022-12-25T00:08:04.654Z,100650.06
2022-12-25T00:11:18.800Z,100653.61
2022-12-25T00:14:25.479Z,100649.68
2022-12-25T00:17:30.659Z,100650.55
2022-12-25T00:20:35.473Z,100654.14
2022-12-25T00:23:41.832Z,100650.36
2022-12-25T00:26:47.373Z,100655.28
2022-12-25T00:29:54.601Z,100658.72
2022-12-25T00:33:03.862Z,100656.14
2022-12-25T00:36:15.514Z,100657.27
2022-12-25T00:39:20.901Z,100647.06
2022-12-25T00:42:25.975Z,100660.82
2022-12-25T00:45:32.507Z,100656.59
2022-12-25T00:48:37.791Z,100657.87
2022-12-25T00:51:42.861Z,100664.10
2022-12-25T00:54:48.965Z,100658.81
2022-12-25T00:57:56.274Z,100664.92
2022-12-25T01:01:01.620Z,100663.77
2022-12-25T01:04:06.956Z,100664.27
2022-12-25T01:07:13.107Z,100665.77
2022-12-25T01:10:32.250Z,100662.91
2022-12-25T01:13:38.398Z,100659.77
2022-12-25T01:16:44.774Z,100669.34
2022-12-25T01:19:51.537Z,100672.27
2022-12-25T01:22:58.380Z,100668.56
2022-12-25T01:26:04.377Z,100670.13
2022-12-25T01:29:10.734Z,100668.61
2022-12-25T01:32:17.090Z,100668.46
2022-12-25T01:35:23.094Z,100671.91
2022-12-25T01:38:29.089Z,100672.97
2022-12-25T01:41:36.844Z,100670.63
2022-12-25T01:45:03.450Z,100664.80
2022-12-25T01:48:11.536Z,100656.78
2022-12-25T01:51:22.436Z,100654.44
2022-12-25T01:54:34.426Z,100661.73
2022-12-25T01:57:43.739Z,100664.80
2022-12-25T02:00:50.349Z,100658.00
2022-12-25T02:03:58.518Z,100674.70
2022-12-25T02:07:06.249Z,100667.91
2022-12-25T02:10:11.844Z,100664.66
2022-12-25T02:13:18.667Z,100668.25
2022-12-25T02:16:32.091Z,100662.80
2022-12-25T02:20:09.414Z,100652.55
2022-12-25T02:24:06.962Z,100667.18
2022-12-25T02:27:22.573Z,100662.52
2022-12-25T02:30:29.271Z,100667.33
2022-12-25T02:34:07.000Z,100662.38
2022-12-25T02:37:28.564Z,100664.75
2022-12-25T02:40:46.733Z,100657.80
2022-12-25T02:44:13.818Z,100666.80
2022-12-25T02:47:36.710Z,100668.16
2022-12-25T02:50:59.633Z,100666.12
2022-12-25T02:54:23.725Z,100667.97
2022-12-25T02:57:48.388Z,100676.48
2022-12-25T03:01:14.709Z,100675.64
2022-12-25T03:04:41.403Z,100678.36
2022-12-25T03:07:48.928Z,100687.37
2022-12-25T03:11:14.529Z,100696.06
2022-12-25T03:14:38.397Z,100687.17
2022-12-25T03:17:44.521Z,100700.59
2022-12-25T03:21:09.512Z,100701.57
2022-12-25T03:24:34.640Z,100706.44
2022-12-25T03:27:40.437Z,100703.66
2022-12-25T03:31:12.581Z,100711.87
2022-12-25T03:34:53.975Z,100711.39
2022-12-25T03:38:40.545Z,100708.90
2022-12-25T03:42:12.769Z,100702.44
2022-12-25T03:45:46.354Z,100708.95
2022-12-25T03:49:11.040Z,100714.59
2022-12-25T03:52:36.042Z,100714.59
2022-12-25T03:55:48.073Z,100714.98
2022-12-25T03:59:10.543Z,100723.00
2022-12-25T04:02:34.586Z,100718.53
2022-12-25T04:05:51.727Z,100723.34
2022-12-25T04:09:16.072Z,100723.57
2022-12-25T04:12:41.546Z,100723.92
2022-12-25T04:16:04.538Z,100723.92
2022-12-25T04:19:28.745Z,100729.51
2022-12-25T04:22:53.735Z,100729.80
2022-12-25T04:26:19.669Z,100731.02
2022-12-25T04:29:43.296Z,100729.66
2022-12-25T04:33:07.583Z,100731.89
2022-12-25T04:36:22.649Z,100734.46
2022-12-25T04:39:28.944Z,100739.03
2022-12-25T04:42:34.628Z,100743.47
2022-12-25T04:45:39.370Z,100739.03
2022-12-25T04:48:48.596Z,100748.07
2022-12-25T04:51:56.286Z,100745.20
2022-12-25T04:55:03.773Z,100746.56
2022-12-25T04:58:11.612Z,100743.31
2022-12-25T05:01:17.819Z,100746.42
2022-12-25T05:04:24.775Z,100751.34
2022-12-25T05:07:30.966Z,100751.19
2022-12-25T05:10:38.433Z,100759.02
2022-12-25T05:13:43.958Z,100762.61
2022-12-25T05:16:49.802Z,100764.41
2022-12-25T05:19:57.125Z,100770.83
2022-12-25T05:23:03.461Z,100772.19
2022-12-25T05:26:08.706Z,100777.63
2022-12-25T05:29:14.666Z,100776.22
2022-12-25T05:32:20.409Z,100780.30
2022-12-25T05:35:27.475Z,100780.16
2022-12-25T05:38:33.262Z,100779.77
2022-12-25T05:41:39.518Z,100784.73
2022-12-25T05:44:45.856Z,100785.74
2022-12-25T05:47:51.192Z,100791.62
2022-12-25T05:50:57.283Z,100787.25
2022-12-25T05:54:05.547Z,100795.90
2022-12-25T05:57:12.233Z,100802.50
2022-12-25T06:00:18.717Z,100802.70
2022-12-25T06:03:24.016Z,100801.83
2022-12-25T06:06:31.116Z,100803.28
2022-12-25T06:09:37.938Z,100809.17
2022-12-25T06:12:43.302Z,100811.59
2022-12-25T06:15:49.211Z,100819.67
2022-12-25T06:19:01.716Z,100817.62
2022-12-25T06:22:09.926Z,100812.87
2022-12-25T06:25:16.482Z,100816.66
2022-12-25T06:28:22.343Z,100819.53
2022-12-25T06:31:34.555Z,100818.45
2022-12-25T06:34:41.071Z,100821.61
2022-12-25T06:37:47.021Z,100827.05
2022-12-25T06:40:51.769Z,100828.70
2022-12-25T06:43:57.753Z,100831.22
2022-12-25T06:47:03.936Z,100829.77
2022-12-25T06:50:10.471Z,100830.80
2022-12-25T06:53:16.976Z,100827.98
2022-12-25T06:56:28.635Z,100834.02
2022-12-25T06:59:35.565Z,100827.41
2022-12-25T07:02:40.651Z,100824.14
2022-12-25T07:05:48.788Z,100834.11
2022-12-25T07:08:53.611Z,100835.52
2022-12-25T07:12:00.269Z,100840.67
2022-12-25T07:15:09.641Z,100843.26
2022-12-25T07:18:16.160Z,100848.94
2022-12-25T07:21:27.761Z,100845.92
2022-12-25T07:24:38.290Z,100847.14
2022-12-25T07:27:44.268Z,100841.89
2022-12-25T07:30:49.962Z,100843.48
2022-12-25T07:33:57.084Z,100853.56
2022-12-25T07:37:03.205Z,100858.38
2022-12-25T07:40:09.156Z,100865.91
2022-12-25T07:43:16.128Z,100860.16
2022-12-25T07:46:21.322Z,100868.69
2022-12-25T07:49:28.550Z,100866.48
2022-12-25T07:52:39.504Z,100868.69
2022-12-25T07:55:41.705Z,100870.42
2022-12-25T07:58:47.766Z,100869.06
2022-12-25T08:01:54.296Z,100872.42
2022-12-25T08:05:00.532Z,100872.77
2022-12-25T08:08:11.459Z,100872.13
2022-12-25T08:11:17.528Z,100873.94
2022-12-25T08:14:24.595Z,100877.09
2022-12-25T08:17:30.583Z,100884.83
2022-12-25T08:20:39.727Z,100880.60
2022-12-25T08:23:49.922Z,100879.81
2022-12-25T08:26:56.425Z,100881.23
2022-12-25T08:30:02.910Z,100884.69
2022-12-25T08:33:10.904Z,100877.37
2022-12-25T08:36:20.504Z,100884.05
2022-12-25T08:39:28.782Z,100886.48
2022-12-25T08:42:35.461Z,100892.86
2022-12-25T08:45:42.410Z,100886.83
2022-12-25T08:48:48.940Z,100882.11
2022-12-25T08:51:56.156Z,100882.11
2022-12-25T08:55:02.333Z,100888.68
2022-12-25T08:58:08.440Z,100883.52
2022-12-25T09:01:15.168Z,100891.06
2022-12-25T09:04:22.587Z,100880.59
2022-12-25T09:07:30.816Z,100882.53
2022-12-25T09:10:30.620Z,100876.80
2022-12-25T09:13:17.734Z,100881.31
2022-12-25T09:16:20.933Z,100879.86
2022-12-25T09:19:08.989Z,100881.94
2022-12-25T09:22:01.927Z,100883.59
2022-12-25T09:24:49.201Z,100884.23
2022-12-25T09:27:41.979Z,100885.95
2022-12-25T09:30:35.701Z,100886.04
2022-12-25T09:33:46.193Z,100886.83
2022-12-25T09:36:53.329Z,100890.91
2022-12-25T09:39:58.997Z,100892.50
2022-12-25T09:43:03.927Z,100890.33
2022-12-25T09:46:08.891Z,100885.30
2022-12-25T09:49:49.469Z,100884.32
2022-12-25T09:53:10.095Z,100881.94
2022-12-25T09:56:20.972Z,100882.23
2022-12-25T09:59:38.447Z,100885.95
2022-12-25T10:03:10.120Z,100878.06
2022-12-25T10:06:35.489Z,100888.53
2022-12-25T10:09:49.265Z,100892.13
2022-12-25T10:13:26.765Z,100885.70
2022-12-25T10:16:52.285Z,100884.20
2022-12-25T10:20:15.830Z,100890.33
2022-12-25T10:23:29.672Z,100893.14
2022-12-25T10:26:37.510Z,100884.53
2022-12-25T10:29:46.572Z,100890.04
2022-12-25T10:32:53.123Z,100893.00
2022-12-25T10:35:59.448Z,100888.67
2022-12-25T10:39:05.825Z,100895.63
2022-12-25T10:42:27.083Z,100895.63
2022-12-25T10:45:33.113Z,100895.09
2022-12-25T10:48:43.953Z,100898.50
2022-12-25T10:51:51.373Z,100900.10
2022-12-25T10:54:58.528Z,100898.44
2022-12-25T10:58:05.109Z,100898.64
2022-12-25T11:01:20.952Z,100894.80
2022-12-25T11:04:36.099Z,100898.02
2022-12-25T11:07:41.746Z,100895.44
2022-12-25T11:10:52.546Z,100894.95
2022-12-25T11:14:08.935Z,100891.55
2022-12-25T11:17:26.322Z,100898.36
2022-12-25T11:20:34.033Z,100898.45
2022-12-25T11:23:41.885Z,100903.95
2022-12-25T11:27:03.603Z,100901.08
2022-12-25T11:30:18.091Z,100906.77
2022-12-25T11:33:19.781Z,100903.90
2022-12-25T11:36:45.646Z,100904.24
2022-12-25T11:39:53.190Z,100907.25
2022-12-25T11:43:08.963Z,100905.89
2022-12-25T11:46:21.989Z,100910.06
2022-12-25T11:49:31.342Z,100918.37
2022-12-25T11:52:38.604Z,100911.63
2022-12-25T11:56:07.055Z,100924.61
2022-12-25T11:59:19.702Z,100922.96
2022-12-25T12:02:34.494Z,100919.22
2022-12-25T12:06:06.046Z,100927.19
2022-12-25T12:09:27.678Z,100930.70
2022-12-25T12:12:50.725Z,100928.70
2022-12-25T12:16:04.890Z,100930.27
2022-12-25T12:19:10.109Z,100936.34
2022-12-25T12:22:20.520Z,100940.95
2022-12-25T12:25:29.933Z,100938.23
2022-12-25T12:28:41.742Z,100942.52
2022-12-25T12:31:56.789Z,100948.84
2022-12-25T12:35:02.408Z,100955.16
2022-12-25T12:38:14.297Z,100955.64
2022-12-25T12:41:22.304Z,100960.60
2022-12-25T12:44:30.726Z,100959.94
2022-12-25T12:47:58.527Z,100963.88
2022-12-25T12:51:04.119Z,100963.04
2022-12-25T12:54:35.629Z,100964.89
2022-12-25T12:57:48.199Z,100971.36
2022-12-25T13:00:59.199Z,100965.91
2022-12-25T13:04:33.716Z,100976.80
2022-12-25T13:07:49.339Z,100971.61
2022-12-25T13:11:05.315Z,100983.17
2022-12-25T13:14:15.352Z,100977.72
2022-12-25T13:17:22.824Z,100982.30
2022-12-25T13:20:33.863Z,100986.88
2022-12-25T13:23:45.463Z,100988.97
2022-12-25T13:26:52.268Z,100995.91
2022-12-25T13:29:58.753Z,100999.86
2022-12-25T13:33:07.231Z,100998.64
2022-12-25T13:36:14.945Z,101004.09
2022-12-25T13:39:22.903Z,101005.30
2022-12-25T13:42:33.630Z,101003.21
2022-12-25T13:45:42.914Z,101007.16
2022-12-25T13:48:49.187Z,101012.61
2022-12-25T13:51:55.556Z,101006.32
2022-12-25T13:55:17.072Z,101013.97
2022-12-25T13:58:30.073Z,101010.69
2022-12-25T14:01:38.833Z,101019.84
2022-12-25T14:04:44.653Z,101021.27
2022-12-25T14:07:51.335Z,101025.50
2022-12-25T14:10:59.500Z,101031.58
2022-12-25T14:14:18.902Z,101033.28
2022-12-25T14:17:25.184Z,101035.03
2022-12-25T14:20:43.537Z,101031.09
2022-12-25T14:24:02.501Z,101039.78
2022-12-25T14:27:19.324Z,101040.06
2022-12-25T14:30:27.397Z,101044.81
2022-12-25T14:33:38.067Z,101035.14
2022-12-25T14:36:44.365Z,101038.98
2022-12-25T14:39:55.623Z,101041.28
2022-12-25T14:43:15.277Z,101039.58
2022-12-25T14:46:20.779Z,101036.40
2022-12-25T14:49:39.607Z,101035.62
2022-12-25T14:52:57.492Z,101033.11
2022-12-25T14:56:05.224Z,101046.23
2022-12-25T14:59:15.940Z,101048.68
2022-12-25T15:02:24.076Z,101053.25
2022-12-25T15:05:45.341Z,101055.38
2022-12-25T15:08:51.786Z,101057.13
2022-12-25T15:12:00.145Z,101062.31
2022-12-25T15:15:06.902Z,101060.63
2022-12-25T15:18:15.490Z,101066.34
2022-12-25T15:21:22.309Z,101065.51
2022-12-25T15:24:27.978Z,101062.41
2022-12-25T15:27:34.408Z,101070.11
2022-12-25T15:30:44.261Z,101073.34
2022-12-25T15:33:52.984Z,101074.78
2022-12-25T15:37:01.017Z,101077.48
2022-12-25T15:40:07.601Z,101078.56
2022-12-25T15:43:38.833Z,101077.48
2022-12-25T15:46:25.173Z,101082.95
2022-12-25T15:49:29.898Z,101084.09
2022-12-25T15:52:34.935Z,101087.33
2022-12-25T15:55:42.065Z,101086.76
2022-12-25T15:58:49.566Z,101092.55
2022-12-25T16:01:59.099Z,101096.01
2022-12-25T16:05:10.119Z,101100.44
2022-12-25T16:08:12.990Z,101103.44
2022-12-25T16:11:21.321Z,101106.96
2022-12-25T16:14:28.484Z,101107.25
2022-12-25T16:17:33.856Z,101109.23
2022-12-25T16:20:41.647Z,101111.59
2022-12-25T16:23:50.356Z,101109.62
2022-12-25T16:26:57.077Z,101109.89
2022-12-25T16:30:04.134Z,101107.16
2022-12-25T16:33:10.667Z,101105.40
2022-12-25T16:36:19.483Z,101107.87
2022-12-25T16:39:24.971Z,101105.40
2022-12-25T16:42:31.806Z,101109.48
2022-12-25T16:45:40.041Z,101120.09
2022-12-25T16:48:49.943Z,101116.63
2022-12-25T16:51:55.666Z,101122.81
2022-12-25T16:55:01.934Z,101128.73
2022-12-25T16:58:09.689Z,101128.27
2022-12-25T17:01:25.460Z,101130.91
2022-12-25T17:04:33.555Z,101128.37
2022-12-25T17:07:45.317Z,101123.81
2022-12-25T17:10:54.163Z,101126.05
2022-12-25T17:14:03.907Z,101122.02
2022-12-25T17:17:10.647Z,101125.35
2022-12-25T17:20:15.697Z,101126.72
2022-12-25T17:23:21.753Z,101124.52
2022-12-25T17:26:28.911Z,101131.41
2022-12-25T17:29:36.911Z,101130.30
2022-12-25T17:32:41.790Z,101138.68
2022-12-25T17:35:50.468Z,101137.55
2022-12-25T17:38:57.669Z,101148.28
2022-12-25T17:42:05.879Z,101145.83
2022-12-25T17:45:12.186Z,101145.08
2022-12-25T17:48:18.916Z,101153.23
2022-12-25T17:51:27.507Z,101151.27
2022-12-25T17:54:34.124Z,101150.64
2022-12-25T17:57:42.744Z,101153.23
2022-12-25T18:00:51.532Z,101155.13
2022-12-25T18:03:59.546Z,101153.63
2022-12-25T18:07:05.649Z,101146.65
2022-12-25T18:10:12.511Z,101142.80
2022-12-25T18:13:18.690Z,101144.55
2022-12-25T18:16:24.759Z,101142.93
2022-12-25T18:19:31.459Z,101137.89
2022-12-25T18:22:37.985Z,101136.56
2022-12-25T18:25:44.920Z,101137.42
2022-12-25T18:28:50.995Z,101137.83
2022-12-25T18:31:58.019Z,101135.59
2022-12-25T18:35:05.636Z,101140.54
2022-12-25T18:38:13.137Z,101142.77
2022-12-25T18:41:20.042Z,101146.59
2022-12-25T18:44:25.914Z,101136.93
2022-12-25T18:47:31.690Z,101147.31
2022-12-25T18:50:38.029Z,101157.56
2022-12-25T18:53:44.399Z,101155.33
2022-12-25T18:56:53.601Z,101157.92
2022-12-25T19:00:00.187Z,101158.66
2022-12-25T19:03:08.136Z,101153.02
2022-12-25T19:06:13.275Z,101161.28
2022-12-25T19:09:18.262Z,101164.36
2022-12-25T19:12:24.675Z,101169.78
2022-12-25T19:15:31.345Z,101170.89
2022-12-25T19:18:39.068Z,101169.05
2022-12-25T19:21:44.401Z,101167.32
2022-12-25T19:24:50.545Z,101173.00
2022-12-25T19:27:58.163Z,101179.67
2022-12-25T19:31:02.749Z,101177.34
2022-12-25T19:34:08.798Z,101184.00
2022-12-25T19:37:15.437Z,101185.36
2022-12-25T19:40:21.396Z,101188.81
2022-12-25T19:43:28.318Z,101183.86
2022-12-25T19:46:40.806Z,101189.69
2022-12-25T19:49:52.563Z,101186.22
2022-12-25T19:52:55.273Z,101190.66
2022-12-25T19:56:02.647Z,101192.13
2022-12-25T19:59:08.779Z,101194.47
2022-12-25T20:02:18.606Z,101198.19
2022-12-25T20:05:25.958Z,101200.63
2022-12-25T20:08:34.645Z,101203.36
2022-12-25T20:11:43.285Z,101199.78
2022-12-25T20:14:51.847Z,101195.32
2022-12-25T20:17:59.461Z,101212.72
2022-12-25T20:21:08.076Z,101209.41
2022-12-25T20:24:17.394Z,101206.06
2022-12-25T20:27:23.586Z,101209.51
2022-12-25T20:30:29.415Z,101208.39
2022-12-25T20:33:35.833Z,101211.08
2022-12-25T20:36:43.635Z,101221.09
2022-12-25T20:39:49.737Z,101216.03
2022-12-25T20:42:55.735Z,101217.23
2022-12-25T20:46:01.061Z,101223.05
2022-12-25T20:49:06.897Z,101218.11
2022-12-25T20:52:15.109Z,101223.27
2022-12-25T20:55:23.295Z,101226.50
2022-12-25T20:58:31.399Z,101227.09
2022-12-25T21:01:38.002Z,101230.92
2022-12-25T21:04:52.265Z,101231.53
2022-12-25T21:07:55.208Z,101233.97
2022-12-25T21:11:01.034Z,101235.44
2022-12-25T21:14:06.341Z,101238.78
2022-12-25T21:17:13.025Z,101240.27
2022-12-25T21:20:18.629Z,101241.62
2022-12-25T21:23:23.150Z,101242.10
2022-12-25T21:26:47.639Z,101246.20
2022-12-25T21:29:50.092Z,101257.42
2022-12-25T21:33:16.871Z,101248.67
2022-12-25T21:36:25.951Z,101252.51
2022-12-25T21:39:33.704Z,101255.34
2022-12-25T21:42:41.928Z,101256.78
2022-12-25T21:45:48.264Z,101261.17
2022-12-25T21:48:54.723Z,101260.00
2022-12-25T21:52:16.306Z,101268.01
2022-12-25T21:55:24.126Z,101261.00
2022-12-25T21:58:29.452Z,101260.12
2022-12-25T22:01:37.212Z,101265.54
2022-12-25T22:04:43.165Z,101271.08
2022-12-25T22:07:49.493Z,101264.30
2022-12-25T22:10:56.866Z,101271.45
2022-12-25T22:14:50.510Z,101271.68
2022-12-25T22:17:48.461Z,101269.20
2022-12-25T22:20:54.347Z,101273.78
2022-12-25T22:24:00.404Z,101276.09
2022-12-25T22:27:06.333Z,101277.97
2022-12-25T22:30:15.923Z,101284.34
2022-12-25T22:33:21.597Z,101277.57
2022-12-25T22:36:26.819Z,101283.23
2022-12-25T22:39:34.250Z,101280.28
2022-12-25T22:42:40.455Z,101281.64
2022-12-25T22:45:47.791Z,101284.22
2022-12-25T22:48:53.861Z,101292.58
2022-12-25T22:52:02.579Z,101297.72
2022-12-25T22:55:09.560Z,101292.05
2022-12-25T22:58:15.294Z,101302.27
2022-12-25T23:01:25.628Z,101302.02
2022-12-25T23:04:32.910Z,101316.91
2022-12-25T23:07:40.744Z,101319.25
2022-12-25T23:10:46.813Z,101315.76
2022-12-25T23:14:11.679Z,101323.94
2022-12-25T23:17:21.379Z,101325.37
2022-12-25T23:20:47.200Z,101325.83
2022-12-25T23:24:10.832Z,101332.59
2022-12-25T23:27:16.843Z,101335.72
2022-12-25T23:30:25.468Z,101340.59
2022-12-25T23:33:32.059Z,101344.51
2022-12-25T23:36:37.770Z,101343.59
2022-12-25T23:39:45.042Z,101349.92
2022-12-25T23:42:50.530Z,101346.67
2022-12-25T23:45:56.673Z,101350.25
2022-12-25T23:49:02.086Z,101350.36
2022-12-25T23:52:07.303Z,101356.36
2022-12-25T23:55:13.368Z,101359.39
2022-12-25T23:58:19.444Z,101366.59
